Time,TemperatureF,DewpointF,PressureIn,WindDirection,WindDirectionDegrees,WindSpeedMPH,WindSpeedGustMPH,Humidity,HourlyPrecipIn,Conditions,Clouds,dailyrainin,SoftwareType,DateUTC
2013-01-21 00:02:00,22.0,13.0,30.27,NNW,337,8.0,11.0,68,-99.99,,,-99.99,,2013-01-21 06:02:00,
2013-01-21 00:12:00,22.0,13.0,30.27,NNW,337,7.0,11.0,68,-99.99,,,-99.99,,2013-01-21 06:12:00,
2013-01-21 00:23:00,21.0,12.0,30.27,NNW,337,8.0,11.0,66,-99.99,,,-99.99,,2013-01-21 06:23:00,
2013-01-21 00:33:00,21.0,12.0,30.27,NW,315,9.0,12.0,67,-99.99,,,-99.99,,2013-01-21 06:33:00,
2013-01-21 00:43:00,21.0,11.0,30.26,NNW,337,8.0,10.0,66,-99.99,,,-99.99,,2013-01-21 06:43:00,
2013-01-21 00:52:00,21.0,12.0,30.26,NW,315,8.0,11.0,67,-99.99,,,-99.99,,2013-01-21 06:52:00,
2013-01-21 01:03:00,21.0,12.0,30.26,NNW,337,8.0,11.0,69,-99.99,,,-99.99,,2013-01-21 07:03:00,
2013-01-21 01:12:00,21.0,13.0,30.26,NW,315,9.0,14.0,70,-99.99,,,-99.99,,2013-01-21 07:12:00,
2013-01-21 01:22:00,21.0,12.0,30.27,NNW,337,8.0,12.0,69,-99.99,,,-99.99,,2013-01-21 07:22:00,
2013-01-21 01:33:00,21.0,13.0,30.26,NNW,337,9.0,12.0,70,-99.99,,,-99.99,,2013-01-21 07:33:00,
2013-01-21 01:42:00,20.0,12.0,30.27,NNW,337,13.0,17.0,70,-99.99,,,-99.99,,2013-01-21 07:42:00,
2013-01-21 01:52:00,20.0,13.0,30.27,NW,315,10.0,14.0,74,-99.99,,,-99.99,,2013-01-21 07:52:00,
2013-01-21 02:02:00,20.0,13.0,30.27,NNW,337,8.0,12.0,74,-99.99,,,-99.99,,2013-01-21 08:02:00,
2013-01-21 02:13:00,20.0,13.0,30.28,NW,315,9.0,12.0,75,-99.99,,,-99.99,,2013-01-21 08:13:00,
2013-01-21 02:22:00,19.0,13.0,30.28,NNW,337,15.0,22.0,75,-99.99,,,-99.99,,2013-01-21 08:22:00,
2013-01-21 02:32:00,19.0,12.0,30.28,NW,315,17.0,23.0,74,-99.99,,,-99.99,,2013-01-21 08:32:00,
2013-01-21 02:42:00,18.0,11.0,30.29,NNW,337,14.0,18.0,74,-99.99,,,-99.99,,2013-01-21 08:42:00,
2013-01-21 02:53:00,18.0,12.0,30.30,NNW,337,13.0,18.0,77,-99.99,,,-99.99,,2013-01-21 08:53:00,
2013-01-21 03:02:00,18.0,12.0,30.30,NW,315,15.0,20.0,77,-99.99,,,-99.99,,2013-01-21 09:02:00,
2013-01-21 03:12:00,18.0,12.0,30.29,NNW,337,11.0,14.0,78,-99.99,,,-99.99,,2013-01-21 09:12:00,
2013-01-21 03:22:00,18.0,12.0,30.30,NNW,337,12.0,16.0,78,-99.99,,,-99.99,,2013-01-21 09:22:00,
2013-01-21 03:33:00,17.0,11.0,30.30,NW,315,10.0,13.0,78,-99.99,,,-99.99,,2013-01-21 09:33:00,
2013-01-21 03:42:00,17.0,12.0,30.29,NW,315,9.0,11.0,80,-99.99,,,-99.99,,2013-01-21 09:42:00,
2013-01-21 03:52:00,17.0,12.0,30.29,WNW,292,7.0,10.0,81,-99.99,,,-99.99,,2013-01-21 09:52:00,
2013-01-21 04:02:00,17.0,12.0,30.29,WNW,292,5.0,7.0,82,-99.99,,,-99.99,,2013-01-21 10:02:00,
2013-01-21 04:12:00,17.0,12.0,30.28,WNW,292,7.0,8.0,81,-99.99,,,-99.99,,2013-01-21 10:12:00,
2013-01-21 04:22:00,16.0,12.0,30.29,WNW,292,6.0,8.0,81,-99.99,,,-99.99,,2013-01-21 10:22:00,
2013-01-21 04:32:00,17.0,12.0,30.28,NW,315,7.0,9.0,80,-99.99,,,-99.99,,2013-01-21 10:32:00,
2013-01-21 04:42:00,17.0,11.0,30.27,WNW,292,5.0,8.0,78,-99.99,,,-99.99,,2013-01-21 10:42:00,
2013-01-21 04:52:00,17.0,11.0,30.28,NW,315,9.0,13.0,76,-99.99,,,-99.99,,2013-01-21 10:52:00,
2013-01-21 05:02:00,17.0,11.0,30.27,NW,315,11.0,16.0,77,-99.99,,,-99.99,,2013-01-21 11:02:00,
2013-01-21 05:13:00,17.0,11.0,30.28,NW,315,9.0,12.0,77,-99.99,,,-99.99,,2013-01-21 11:13:00,
2013-01-21 05:23:00,17.0,11.0,30.28,NW,315,7.0,9.0,79,-99.99,,,-99.99,,2013-01-21 11:23:00,
2013-01-21 05:32:00,17.0,12.0,30.28,NW,315,5.0,8.0,82,-99.99,,,-99.99,,2013-01-21 11:32:00,
2013-01-21 05:42:00,17.0,12.0,30.29,NNW,337,7.0,12.0,80,-99.99,,,-99.99,,2013-01-21 11:42:00,
2013-01-21 05:53:00,17.0,9.0,30.30,NW,315,12.0,17.0,71,-99.99,,,-99.99,,2013-01-21 11:53:00,
2013-01-21 06:02:00,17.0,7.0,30.30,NW,315,15.0,21.0,65,-99.99,,,-99.99,,2013-01-21 12:02:00,
2013-01-21 06:12:00,17.0,8.0,30.30,NW,315,12.0,16.0,67,-99.99,,,-99.99,,2013-01-21 12:12:00,
2013-01-21 06:22:00,17.0,7.0,30.29,NNW,337,14.0,20.0,64,-99.99,,,-99.99,,2013-01-21 12:22:00,
2013-01-21 06:32:00,17.0,8.0,30.29,WNW,292,9.0,13.0,70,-99.99,,,-99.99,,2013-01-21 12:32:00,
2013-01-21 06:42:00,16.0,10.0,30.29,NW,315,7.0,9.0,74,-99.99,,,-99.99,,2013-01-21 12:42:00,
2013-01-21 06:52:00,17.0,9.0,30.28,NW,315,8.0,12.0,70,-99.99,,,-99.99,,2013-01-21 12:52:00,
2013-01-21 07:02:00,17.0,9.0,30.28,NW,315,9.0,12.0,70,-99.99,,,-99.99,,2013-01-21 13:02:00,
2013-01-21 07:12:00,17.0,8.0,30.28,NW,315,9.0,13.0,69,-99.99,,,-99.99,,2013-01-21 13:12:00,
2013-01-21 07:23:00,17.0,8.0,30.28,NNW,337,9.0,12.0,68,-99.99,,,-99.99,,2013-01-21 13:23:00,
2013-01-21 07:33:00,16.0,8.0,30.28,NW,315,9.0,13.0,68,-99.99,,,-99.99,,2013-01-21 13:33:00,
2013-01-21 07:42:00,16.0,8.0,30.28,NW,315,7.0,8.0,69,-99.99,,,-99.99,,2013-01-21 13:42:00,
2013-01-21 07:53:00,16.0,8.0,30.28,WNW,292,5.0,9.0,70,-99.99,,,-99.99,,2013-01-21 13:53:00,
2013-01-21 08:03:00,17.0,9.0,30.28,WNW,292,7.0,11.0,69,-99.99,,,-99.99,,2013-01-21 14:03:00,
2013-01-21 08:12:00,17.0,8.0,30.29,WNW,292,8.0,11.0,68,-99.99,,,-99.99,,2013-01-21 14:12:00,
2013-01-21 08:23:00,17.0,9.0,30.29,WNW,292,7.0,9.0,69,-99.99,,,-99.99,,2013-01-21 14:23:00,
2013-01-21 08:32:00,18.0,10.0,30.30,WNW,292,6.0,11.0,71,-99.99,,,-99.99,,2013-01-21 14:32:00,
2013-01-21 08:43:00,18.0,9.0,30.29,WNW,292,9.0,13.0,69,-99.99,,,-99.99,,2013-01-21 14:43:00,
2013-01-21 08:52:00,17.0,9.0,30.30,West,270,9.0,14.0,68,-99.99,,,-99.99,,2013-01-21 14:52:00,
2013-01-21 09:03:00,18.0,9.0,30.30,NW,315,10.0,14.0,69,-99.99,,,-99.99,,2013-01-21 15:03:00,
2013-01-21 09:13:00,18.0,9.0,30.29,WNW,292,9.0,14.0,65,-99.99,,,-99.99,,2013-01-21 15:13:00,
2013-01-21 09:23:00,19.0,8.0,30.29,West,270,8.0,14.0,62,-99.99,,,-99.99,,2013-01-21 15:23:00,
2013-01-21 09:33:00,19.0,9.0,30.30,WNW,292,10.0,15.0,64,-99.99,,,-99.99,,2013-01-21 15:33:00,
2013-01-21 09:42:00,20.0,10.0,30.31,WNW,292,13.0,18.0,64,-99.99,,,-99.99,,2013-01-21 15:42:00,
2013-01-21 09:52:00,20.0,9.0,30.31,West,270,13.0,16.0,62,-99.99,,,-99.99,,2013-01-21 15:52:00,
2013-01-21 10:03:00,20.0,10.0,30.31,WNW,292,13.0,18.0,63,-99.99,,,-99.99,,2013-01-21 16:03:00,
2013-01-21 10:12:00,21.0,9.0,30.31,NW,315,14.0,21.0,61,-99.99,,,-99.99,,2013-01-21 16:12:00,
2013-01-21 10:23:00,20.0,8.0,30.31,NW,315,18.0,25.0,59,-99.99,,,-99.99,,2013-01-21 16:23:00,
2013-01-21 10:33:00,21.0,10.0,30.32,NW,315,14.0,19.0,60,-99.99,,,-99.99,,2013-01-21 16:33:00,
2013-01-21 10:43:00,22.0,9.0,30.31,NNW,337,13.0,20.0,55,-99.99,,,-99.99,,2013-01-21 16:43:00,
2013-01-21 10:53:00,21.0,7.0,30.30,NNW,337,19.0,23.0,55,-99.99,,,-99.99,,2013-01-21 16:53:00,
2013-01-21 11:02:00,21.0,8.0,30.31,NW,315,15.0,21.0,56,-99.99,,,-99.99,,2013-01-21 17:02:00,
2013-01-21 11:12:00,22.0,8.0,30.30,NW,315,14.0,20.0,54,-99.99,,,-99.99,,2013-01-21 17:12:00,
2013-01-21 11:22:00,22.0,8.0,30.31,NW,315,15.0,21.0,53,-99.99,,,-99.99,,2013-01-21 17:22:00,
2013-01-21 11:33:00,22.0,10.0,30.30,NW,315,14.0,19.0,58,-99.99,,,-99.99,,2013-01-21 17:33:00,
2013-01-21 11:42:00,23.0,8.0,30.30,WNW,292,14.0,20.0,52,-99.99,,,-99.99,,2013-01-21 17:42:00,
2013-01-21 11:52:00,23.0,7.0,30.30,West,270,13.0,20.0,49,-99.99,,,-99.99,,2013-01-21 17:52:00,
2013-01-21 12:03:00,22.0,5.0,30.28,NW,315,14.0,21.0,46,-99.99,,,-99.99,,2013-01-21 18:03:00,
2013-01-21 12:12:00,23.0,7.0,30.29,NW,315,15.0,22.0,49,-99.99,,,-99.99,,2013-01-21 18:12:00,
2013-01-21 12:22:00,23.0,3.0,30.28,NW,315,15.0,22.0,42,-99.99,,,-99.99,,2013-01-21 18:22:00,
2013-01-21 12:33:00,22.0,1.0,30.29,NW,315,19.0,24.0,40,-99.99,,,-99.99,,2013-01-21 18:33:00,
2013-01-21 12:42:00,22.0,2.0,30.29,NNW,337,17.0,23.0,41,-99.99,,,-99.99,,2013-01-21 18:42:00,
2013-01-21 12:52:00,22.0,-1.0,30.28,NNW,337,16.0,20.0,36,-99.99,,,-99.99,,2013-01-21 18:52:00,
2013-01-21 13:03:00,22.0,1.0,30.28,NNW,337,15.0,22.0,39,-99.99,,,-99.99,,2013-01-21 19:03:00,
2013-01-21 13:12:00,22.0,1.0,30.29,NW,315,13.0,19.0,39,-99.99,,,-99.99,,2013-01-21 19:12:00,
2013-01-21 13:22:00,21.0,-1.0,30.30,WNW,292,14.0,21.0,37,-99.99,,,-99.99,,2013-01-21 19:22:00,
2013-01-21 13:33:00,20.0,1.0,30.30,NW,315,15.0,20.0,42,-99.99,,,-99.99,,2013-01-21 19:33:00,
2013-01-21 13:42:00,20.0,2.0,30.29,NW,315,13.0,20.0,43,-99.99,,,-99.99,,2013-01-21 19:42:00,
2013-01-21 13:52:00,20.0,0.0,30.29,NNW,337,14.0,18.0,42,-99.99,,,-99.99,,2013-01-21 19:52:00,
2013-01-21 14:03:00,20.0,4.0,30.29,NW,315,14.0,17.0,48,-99.99,,,-99.99,,2013-01-21 20:03:00,
2013-01-21 14:12:00,19.0,2.0,30.30,NNW,337,12.0,16.0,46,-99.99,,,-99.99,,2013-01-21 20:12:00,
2013-01-21 14:22:00,19.0,0.0,30.30,NNW,337,13.0,18.0,43,-99.99,,,-99.99,,2013-01-21 20:22:00,
2013-01-21 14:33:00,19.0,1.0,30.28,NW,315,14.0,18.0,45,-99.99,,,-99.99,,2013-01-21 20:33:00,
2013-01-21 14:43:00,18.0,0.0,30.29,East,90,12.0,17.0,44,-99.99,,,-99.99,,2013-01-21 20:43:00,
2013-01-21 14:53:00,18.0,-1.0,30.29,East,90,11.0,15.0,43,-99.99,,,-99.99,,2013-01-21 20:53:00,
2013-01-21 15:03:00,18.0,0.0,30.29,NNW,337,10.0,14.0,45,-99.99,,,-99.99,,2013-01-21 21:03:00,
2013-01-21 15:12:00,18.0,0.0,30.31,NW,315,11.0,14.0,46,-99.99,,,-99.99,,2013-01-21 21:12:00,
2013-01-21 15:22:00,17.0,1.0,30.31,NNW,337,11.0,17.0,48,-99.99,,,-99.99,,2013-01-21 21:22:00,
2013-01-21 15:33:00,18.0,1.0,30.30,NNW,337,11.0,17.0,48,-99.99,,,-99.99,,2013-01-21 21:33:00,
2013-01-21 15:43:00,17.0,2.0,30.31,NW,315,9.0,13.0,49,-99.99,,,-99.99,,2013-01-21 21:43:00,
2013-01-21 15:53:00,18.0,1.0,30.30,NW,315,10.0,14.0,48,-99.99,,,-99.99,,2013-01-21 21:53:00,
2013-01-21 16:03:00,17.0,0.0,30.31,NNW,337,8.0,12.0,47,-99.99,,,-99.99,,2013-01-21 22:03:00,
2013-01-21 16:12:00,17.0,-1.0,30.31,WNW,292,9.0,13.0,43,-99.99,,,-99.99,,2013-01-21 22:12:00,
2013-01-21 16:23:00,17.0,1.0,30.31,NW,315,10.0,15.0,49,-99.99,,,-99.99,,2013-01-21 22:23:00,
2013-01-21 16:33:00,17.0,-1.0,30.30,NW,315,10.0,15.0,44,-99.99,,,-99.99,,2013-01-21 22:33:00,
2013-01-21 16:42:00,17.0,-1.0,30.31,NW,315,9.0,12.0,45,-99.99,,,-99.99,,2013-01-21 22:42:00,
2013-01-21 16:52:00,17.0,-1.0,30.30,NW,315,11.0,15.0,46,-99.99,,,-99.99,,2013-01-21 22:52:00,
2013-01-21 17:03:00,16.0,-1.0,30.30,NW,315,9.0,13.0,46,-99.99,,,-99.99,,2013-01-21 23:03:00,
2013-01-21 17:12:00,16.0,-1.0,30.31,NW,315,9.0,12.0,45,-99.99,,,-99.99,,2013-01-21 23:12:00,
2013-01-21 17:22:00,16.0,-1.0,30.31,NW,315,10.0,14.0,45,-99.99,,,-99.99,,2013-01-21 23:22:00,
2013-01-21 17:33:00,16.0,-1.0,30.31,NW,315,10.0,13.0,45,-99.99,,,-99.99,,2013-01-21 23:33:00,
2013-01-21 17:42:00,16.0,-3.0,30.31,NW,315,10.0,14.0,42,-99.99,,,-99.99,,2013-01-21 23:42:00,
2013-01-21 17:52:00,16.0,-3.0,30.30,NW,315,9.0,12.0,42,-99.99,,,-99.99,,2013-01-21 23:52:00,
2013-01-21 18:02:00,16.0,-2.0,30.30,NNW,337,9.0,13.0,45,-99.99,,,-99.99,,2013-01-22 00:02:00,
2013-01-21 18:12:00,16.0,-1.0,30.30,WNW,292,7.0,10.0,48,-99.99,,,-99.99,,2013-01-22 00:12:00,
2013-01-21 18:22:00,16.0,-2.0,30.31,NW,315,8.0,10.0,44,-99.99,,,-99.99,,2013-01-22 00:22:00,
2013-01-21 18:32:00,16.0,-2.0,30.30,NW,315,7.0,9.0,45,-99.99,,,-99.99,,2013-01-22 00:32:00,
2013-01-21 18:42:00,16.0,-2.0,30.31,NW,315,7.0,10.0,46,-99.99,,,-99.99,,2013-01-22 00:42:00,
2013-01-21 18:53:00,15.0,-1.0,30.31,East,90,7.0,9.0,47,-99.99,,,-99.99,,2013-01-22 00:53:00,
2013-01-21 19:02:00,15.0,-1.0,30.31,NNW,337,7.0,9.0,48,-99.99,,,-99.99,,2013-01-22 01:02:00,
2013-01-21 19:12:00,15.0,0.0,30.31,NNW,337,7.0,10.0,49,-99.99,,,-99.99,,2013-01-22 01:12:00,
2013-01-21 19:23:00,15.0,0.0,30.31,NNW,337,8.0,9.0,49,-99.99,,,-99.99,,2013-01-22 01:23:00,
2013-01-21 19:32:00,15.0,1.0,30.31,NNW,337,7.0,11.0,53,-99.99,,,-99.99,,2013-01-22 01:32:00,
2013-01-21 19:42:00,15.0,0.0,30.31,NNW,337,8.0,11.0,50,-99.99,,,-99.99,,2013-01-22 01:42:00,
2013-01-21 19:52:00,15.0,1.0,30.31,NNW,337,7.0,10.0,53,-99.99,,,-99.99,,2013-01-22 01:52:00,
2013-01-21 20:02:00,15.0,2.0,30.31,NNW,337,6.0,8.0,54,-99.99,,,-99.99,,2013-01-22 02:02:00,
2013-01-21 20:12:00,16.0,2.0,30.31,NW,315,8.0,11.0,54,-99.99,,,-99.99,,2013-01-22 02:12:00,
2013-01-21 20:22:00,15.0,0.0,30.31,NW,315,8.0,11.0,52,-99.99,,,-99.99,,2013-01-22 02:22:00,
2013-01-21 20:32:00,15.0,0.0,30.32,NW,315,8.0,11.0,51,-99.99,,,-99.99,,2013-01-22 02:32:00,
2013-01-21 20:42:00,15.0,-1.0,30.32,NNW,337,8.0,11.0,49,-99.99,,,-99.99,,2013-01-22 02:42:00,
2013-01-21 20:53:00,15.0,-1.0,30.32,NW,315,8.0,11.0,48,-99.99,,,-99.99,,2013-01-22 02:53:00,
2013-01-21 21:02:00,15.0,0.0,30.32,NW,315,7.0,10.0,50,-99.99,,,-99.99,,2013-01-22 03:02:00,
2013-01-21 21:12:00,15.0,-1.0,30.31,NW,315,8.0,11.0,49,-99.99,,,-99.99,,2013-01-22 03:12:00,
2013-01-21 21:22:00,14.0,-1.0,30.31,WNW,292,7.0,10.0,49,-99.99,,,-99.99,,2013-01-22 03:22:00,
2013-01-21 21:32:00,15.0,1.0,30.31,NNW,337,6.0,8.0,53,-99.99,,,-99.99,,2013-01-22 03:32:00,
2013-01-21 21:42:00,14.0,-1.0,30.32,NNW,337,7.0,10.0,50,-99.99,,,-99.99,,2013-01-22 03:42:00,
2013-01-21 21:52:00,14.0,-1.0,30.31,NW,315,7.0,9.0,48,-99.99,,,-99.99,,2013-01-22 03:52:00,
2013-01-21 22:02:00,14.0,-1.0,30.31,NNW,337,7.0,9.0,49,-99.99,,,-99.99,,2013-01-22 04:02:00,
2013-01-21 22:12:00,14.0,0.0,30.32,NNW,337,7.0,9.0,51,-99.99,,,-99.99,,2013-01-22 04:12:00,
2013-01-21 22:22:00,15.0,-2.0,30.32,NNW,337,7.0,10.0,48,-99.99,,,-99.99,,2013-01-22 04:22:00,
2013-01-21 22:32:00,14.0,-1.0,30.32,NNW,337,6.0,9.0,48,-99.99,,,-99.99,,2013-01-22 04:32:00,
2013-01-21 22:42:00,15.0,-1.0,30.32,NNW,337,7.0,8.0,50,-99.99,,,-99.99,,2013-01-22 04:42:00,
2013-01-21 22:52:00,15.0,-1.0,30.32,NNW,337,7.0,9.0,50,-99.99,,,-99.99,,2013-01-22 04:52:00,
2013-01-21 23:03:00,14.0,-1.0,30.33,NNW,337,7.0,9.0,50,-99.99,,,-99.99,,2013-01-22 05:03:00,
2013-01-21 23:12:00,15.0,-1.0,30.33,NNW,337,7.0,10.0,48,-99.99,,,-99.99,,2013-01-22 05:12:00,
2013-01-21 23:22:00,14.0,-1.0,30.33,NNW,337,7.0,9.0,50,-99.99,,,-99.99,,2013-01-22 05:22:00,
2013-01-21 23:32:00,14.0,-2.0,30.33,NNW,337,6.0,9.0,48,-99.99,,,-99.99,,2013-01-22 05:32:00,
2013-01-21 23:42:00,14.0,-1.0,30.32,NW,315,6.0,8.0,50,-99.99,,,-99.99,,2013-01-22 05:42:00,
2013-01-21 23:52:00,14.0,-1.0,30.32,East,90,5.0,7.0,50,-99.99,,,-99.99,,2013-01-22 05:52:00,